createdAt,value
2019-04-29T00:00:42.551Z,11.37
2019-04-29T00:03:09.265Z,11.43
2019-04-29T00:05:36.217Z,9.80
2019-04-29T00:08:02.946Z,8.67
2019-04-29T00:10:30.353Z,8.87
2019-04-29T00:12:56.936Z,10.00
2019-04-29T00:30:46.535Z,14.03
2019-04-29T00:33:13.431Z,11.23
2019-04-29T00:35:40.966Z,11.10
2019-04-29T00:38:36.525Z,12.07
2019-04-29T00:41:27.644Z,10.70
2019-04-29T00:43:59.859Z,12.40
2019-04-29T00:46:27.601Z,10.43
2019-04-29T00:48:54.589Z,10.27
2019-04-29T00:51:21.775Z,9.17
2019-04-29T00:53:50.684Z,11.87
2019-04-29T00:56:17.558Z,13.90
2019-04-29T00:58:45.321Z,9.97
2019-04-29T01:01:17.215Z,11.50
2019-04-29T01:03:47.101Z,11.83
2019-04-29T01:06:13.861Z,11.10
2019-04-29T01:08:41.568Z,8.97
2019-04-29T01:11:08.911Z,10.20
2019-04-29T01:13:35.532Z,12.50
2019-04-29T01:16:02.180Z,11.43
2019-04-29T01:18:28.797Z,17.00
2019-04-29T01:20:55.445Z,12.87
2019-04-29T01:23:22.136Z,11.37
2019-04-29T01:25:52.704Z,11.30
2019-04-29T01:28:25.363Z,11.03
2019-04-29T01:30:56.408Z,14.67
2019-04-29T01:33:23.324Z,12.73
2019-04-29T01:35:52.612Z,13.77
2019-04-29T01:38:19.213Z,13.93
2019-04-29T01:40:52.570Z,13.30
2019-04-29T01:43:19.176Z,15.40
2019-04-29T01:45:45.900Z,17.13
2019-04-29T01:48:13.115Z,14.10
2019-04-29T01:50:39.813Z,13.53
2019-04-29T01:53:06.538Z,18.33
2019-04-29T01:55:33.363Z,18.87
2019-04-29T01:58:00.006Z,17.00
2019-04-29T02:00:26.628Z,15.23
2019-04-29T02:02:53.595Z,20.13
2019-04-29T02:05:20.295Z,20.47
2019-04-29T02:07:46.955Z,20.63
2019-04-29T02:10:23.300Z,17.57
2019-04-29T02:12:49.925Z,18.57
2019-04-29T02:15:16.607Z,20.63
2019-04-29T02:17:43.300Z,24.07
2019-04-29T02:20:10.773Z,21.37
2019-04-29T02:23:02.937Z,20.40
2019-04-29T02:25:34.042Z,20.10
2019-04-29T02:28:00.640Z,19.60
2019-04-29T02:30:54.152Z,25.00
2019-04-29T02:33:20.910Z,21.87
2019-04-29T02:35:47.649Z,22.27
2019-04-29T02:38:36.399Z,21.87
2019-04-29T02:41:10.116Z,23.20
2019-04-29T02:43:38.540Z,19.07
2019-04-29T02:46:05.652Z,20.83
2019-04-29T02:48:34.649Z,21.57
2019-04-29T02:51:01.201Z,24.87
2019-04-29T02:53:27.837Z,24.13
2019-04-29T02:55:56.344Z,22.73
2019-04-29T02:58:29.915Z,26.10
2019-04-29T03:01:16.292Z,24.20
2019-04-29T03:03:58.529Z,24.60
2019-04-29T03:06:25.130Z,23.47
2019-04-29T03:08:51.830Z,22.70
2019-04-29T03:11:19.281Z,27.97
2019-04-29T03:13:46.011Z,26.27
2019-04-29T03:16:12.962Z,25.27
2019-04-29T03:18:46.110Z,23.90
2019-04-29T03:21:26.484Z,25.37
2019-04-29T03:23:53.389Z,26.73
2019-04-29T03:26:20.228Z,27.87
2019-04-29T03:28:46.941Z,29.27
2019-04-29T03:31:13.628Z,29.40
2019-04-29T03:33:40.343Z,29.40
2019-04-29T03:36:07.171Z,29.10
2019-04-29T03:38:33.852Z,31.20
2019-04-29T03:41:00.435Z,31.40
2019-04-29T03:43:27.054Z,28.87
2019-04-29T03:45:53.701Z,35.07
2019-04-29T03:48:20.345Z,29.43
2019-04-29T03:50:46.940Z,34.43
2019-04-29T03:53:13.558Z,34.00
2019-04-29T03:55:41.300Z,34.37
2019-04-29T03:58:08.054Z,34.23
2019-04-29T04:00:34.764Z,32.97
2019-04-29T04:03:08.279Z,34.27
2019-04-29T04:05:56.560Z,35.40
2019-04-29T04:08:29.507Z,33.80
2019-04-29T04:10:56.204Z,33.80
2019-04-29T04:13:22.834Z,35.87
2019-04-29T04:15:49.659Z,37.67
2019-04-29T04:18:22.065Z,34.30
2019-04-29T04:20:48.890Z,36.57
2019-04-29T04:23:15.518Z,40.03
2019-04-29T04:25:42.452Z,41.80
2019-04-29T04:28:09.347Z,37.17
2019-04-29T04:30:36.089Z,39.57
2019-04-29T04:33:02.948Z,41.43
2019-04-29T04:35:29.705Z,38.17
2019-04-29T04:37:56.384Z,38.23
2019-04-29T04:40:29.484Z,41.10
2019-04-29T04:42:56.408Z,38.30
2019-04-29T04:45:23.011Z,37.93
2019-04-29T04:47:49.630Z,38.57
2019-04-29T04:50:16.732Z,38.30
2019-04-29T04:52:43.389Z,37.20
2019-04-29T04:55:10.722Z,43.23
2019-04-29T04:57:37.583Z,48.27
2019-04-29T05:00:07.619Z,37.73
2019-04-29T05:02:34.468Z,38.50
2019-04-29T05:05:01.081Z,37.87
2019-04-29T05:07:27.841Z,42.60
2019-04-29T05:09:54.918Z,41.40
2019-04-29T05:12:21.621Z,37.53
2019-04-29T05:14:48.389Z,35.50
2019-04-29T05:17:15.027Z,38.73
2019-04-29T05:19:41.784Z,37.27
2019-04-29T05:22:08.534Z,36.50
2019-04-29T05:24:35.630Z,38.80
2019-04-29T05:27:02.373Z,41.77
2019-04-29T05:29:29.159Z,43.30
2019-04-29T05:31:56.157Z,38.90
2019-04-29T05:34:24.723Z,40.57
2019-04-29T05:36:57.754Z,39.80
2019-04-29T05:39:27.789Z,44.90
2019-04-29T05:41:54.483Z,43.73
2019-04-29T05:44:28.112Z,51.17
2019-04-29T05:46:57.997Z,45.40
2019-04-29T05:49:33.546Z,41.73
2019-04-29T05:52:09.537Z,43.23
2019-04-29T05:54:36.116Z,43.13
2019-04-29T05:57:02.831Z,43.20
2019-04-29T05:59:29.540Z,47.47
2019-04-29T06:01:56.714Z,44.83
2019-04-29T06:04:23.336Z,49.70
2019-04-29T06:06:49.982Z,50.83
2019-04-29T06:09:18.219Z,41.80
2019-04-29T06:11:45.413Z,40.23
2019-04-29T06:14:12.065Z,44.90
2019-04-29T06:16:38.935Z,49.03
2019-04-29T06:19:06.024Z,47.27
2019-04-29T06:21:32.904Z,49.17
2019-04-29T06:24:04.336Z,50.47
2019-04-29T06:26:29.692Z,46.53
2019-04-29T06:28:56.282Z,44.23
2019-04-29T06:31:22.859Z,54.20
2019-04-29T06:33:49.447Z,54.03
2019-04-29T06:36:16.202Z,48.10
2019-04-29T06:38:42.878Z,49.90
2019-04-29T06:41:10.831Z,40.17
2019-04-29T06:43:37.842Z,37.53
2019-04-29T06:46:04.613Z,39.30
2019-04-29T06:48:31.400Z,39.00
2019-04-29T06:50:58.052Z,32.37
2019-04-29T06:53:24.638Z,37.60
2019-04-29T06:55:51.235Z,33.47
2019-04-29T06:58:17.986Z,34.13
2019-04-29T07:00:44.696Z,28.40
2019-04-29T07:03:11.297Z,32.57
2019-04-29T07:05:37.948Z,31.00
2019-04-29T07:08:04.769Z,31.80
2019-04-29T07:10:31.665Z,31.30
2019-04-29T07:12:58.287Z,36.83
2019-04-29T07:15:24.907Z,31.80
2019-04-29T07:17:51.575Z,32.73
2019-04-29T07:20:18.298Z,36.10
2019-04-29T07:22:44.896Z,37.23
2019-04-29T07:25:11.721Z,33.77
2019-04-29T07:27:43.126Z,28.73
2019-04-29T07:30:08.649Z,31.97
2019-04-29T07:32:35.288Z,33.17
2019-04-29T07:35:05.831Z,23.67
2019-04-29T07:37:34.067Z,26.20
2019-04-29T07:39:59.232Z,27.97
2019-04-29T07:42:31.956Z,25.67
2019-04-29T07:45:12.660Z,27.03
2019-04-29T07:47:40.097Z,29.23
2019-04-29T07:50:07.366Z,28.27
2019-04-29T07:52:33.989Z,26.17
2019-04-29T07:55:00.572Z,23.27
2019-04-29T07:57:27.497Z,25.27
2019-04-29T07:59:54.158Z,25.33
2019-04-29T08:02:20.856Z,23.10
2019-04-29T08:04:47.487Z,28.77
2019-04-29T08:07:14.575Z,23.30
2019-04-29T08:09:44.155Z,28.77
2019-04-29T08:12:10.145Z,32.30
2019-04-29T08:14:38.322Z,28.13
2019-04-29T08:17:05.466Z,32.30
2019-04-29T08:19:32.177Z,38.57
2019-04-29T08:21:58.822Z,36.43
2019-04-29T08:24:26.437Z,31.53
2019-04-29T08:26:53.220Z,36.17
2019-04-29T08:29:20.013Z,40.90
2019-04-29T08:31:46.806Z,40.53
2019-04-29T08:34:13.539Z,36.20
2019-04-29T08:36:40.171Z,37.87
2019-04-29T08:39:08.917Z,40.40
2019-04-29T08:41:35.950Z,32.83
2019-04-29T08:44:16.375Z,34.10
2019-04-29T08:46:51.570Z,40.50
2019-04-29T08:49:14.790Z,40.27
2019-04-29T08:51:41.691Z,33.73
2019-04-29T08:54:08.346Z,39.10
2019-04-29T08:56:36.344Z,40.57
2019-04-29T08:59:03.486Z,40.00
2019-04-29T09:01:34.161Z,44.17
2019-04-29T09:03:59.170Z,45.30
2019-04-29T09:06:27.779Z,43.90
2019-04-29T09:08:59.235Z,40.30
2019-04-29T09:11:27.299Z,44.50
2019-04-29T09:13:54.300Z,36.60
2019-04-29T09:16:21.279Z,41.33
2019-04-29T09:18:49.564Z,36.70
2019-04-29T09:21:16.158Z,32.80
2019-04-29T09:23:42.826Z,35.30
2019-04-29T09:26:19.005Z,36.80
2019-04-29T09:28:49.624Z,36.80
2019-04-29T09:31:17.131Z,41.00
2019-04-29T09:33:48.402Z,32.40
2019-04-29T09:36:13.881Z,31.33
2019-04-29T09:38:40.991Z,36.17
2019-04-29T09:41:35.023Z,43.87
2019-04-29T09:44:10.997Z,39.07
2019-04-29T09:46:37.715Z,40.80
2019-04-29T09:49:04.333Z,32.20
2019-04-29T09:51:31.047Z,34.00
2019-04-29T09:53:57.708Z,32.97
2019-04-29T09:56:24.296Z,35.20
2019-04-29T09:59:10.645Z,36.87
2019-04-29T10:01:44.669Z,37.40
2019-04-29T10:04:36.759Z,33.33
2019-04-29T10:07:05.279Z,33.80
2019-04-29T10:09:31.999Z,33.57
2019-04-29T10:11:58.641Z,43.97
2019-04-29T10:14:25.272Z,44.23
2019-04-29T10:17:04.975Z,37.33
2019-04-29T10:19:54.977Z,37.50
2019-04-29T10:22:21.584Z,31.23
2019-04-29T10:24:48.241Z,31.07
2019-04-29T10:27:15.024Z,35.07
2019-04-29T10:29:46.093Z,29.43
2019-04-29T10:32:12.830Z,30.47
2019-04-29T10:34:39.552Z,30.83
2019-04-29T10:37:06.351Z,33.63
2019-04-29T10:40:10.528Z,34.40
2019-04-29T10:42:35.436Z,35.17
2019-04-29T10:45:11.921Z,38.70
2019-04-29T10:48:01.210Z,32.30
2019-04-29T10:50:31.234Z,34.60
2019-04-29T10:52:58.212Z,27.70
2019-04-29T10:55:29.868Z,32.87
2019-04-29T10:57:54.081Z,32.67
2019-04-29T11:00:44.200Z,31.63
2019-04-29T11:03:11.257Z,31.30
2019-04-29T11:05:59.979Z,33.50
2019-04-29T11:08:19.485Z,30.80
2019-04-29T11:10:46.276Z,35.27
2019-04-29T11:13:12.991Z,25.13
2019-04-29T11:15:39.607Z,29.03
2019-04-29T11:18:06.964Z,28.27
2019-04-29T11:20:34.597Z,31.60
2019-04-29T11:23:26.941Z,32.93
2019-04-29T11:26:11.452Z,34.33
2019-04-29T11:28:38.420Z,38.37
2019-04-29T11:31:09.585Z,30.30
2019-04-29T11:33:41.667Z,29.83
2019-04-29T11:36:10.487Z,29.33
2019-04-29T11:38:38.737Z,27.17
2019-04-29T11:41:05.739Z,42.70
2019-04-29T11:43:32.879Z,30.53
2019-04-29T11:46:00.026Z,28.83
2019-04-29T11:48:26.938Z,32.13
2019-04-29T11:51:05.109Z,38.13
2019-04-29T11:53:32.078Z,29.87
2019-04-29T11:55:59.150Z,35.67
2019-04-29T11:58:51.369Z,32.90
2019-04-29T12:01:39.258Z,27.83
2019-04-29T12:04:06.034Z,26.63
2019-04-29T12:06:32.960Z,27.83
2019-04-29T12:08:59.800Z,31.10
2019-04-29T12:11:28.632Z,26.17
2019-04-29T12:14:04.703Z,33.63
2019-04-29T12:16:35.728Z,26.97
2019-04-29T12:19:17.043Z,27.20
2019-04-29T12:21:44.181Z,23.27
2019-04-29T12:24:10.993Z,26.87
2019-04-29T12:26:43.195Z,24.80
2019-04-29T12:29:06.098Z,21.07
2019-04-29T12:31:49.344Z,35.60
2019-04-29T12:34:39.616Z,27.63
2019-04-29T12:37:15.960Z,27.33
2019-04-29T12:40:09.743Z,27.90
2019-04-29T12:43:00.215Z,26.20
2019-04-29T12:45:35.049Z,26.37
2019-04-29T12:48:01.687Z,31.27
2019-04-29T12:50:28.463Z,24.37
2019-04-29T12:52:56.181Z,26.13
2019-04-29T12:55:44.105Z,25.90
2019-04-29T12:57:59.034Z,27.90
2019-04-29T13:00:29.419Z,24.90
2019-04-29T13:03:02.945Z,23.23
2019-04-29T13:05:57.148Z,23.10
2019-04-29T13:08:16.634Z,22.80
2019-04-29T13:10:52.010Z,31.97
2019-04-29T13:13:20.191Z,31.80
2019-04-29T13:16:06.147Z,24.50
2019-04-29T13:19:10.630Z,27.60
2019-04-29T13:21:24.768Z,24.63
2019-04-29T13:23:59.548Z,35.33
2019-04-29T13:26:27.865Z,27.97
2019-04-29T13:29:00.309Z,30.10
2019-04-29T13:31:20.105Z,24.97
2019-04-29T13:33:50.909Z,28.60
2019-04-29T13:36:19.765Z,29.90
2019-04-29T13:38:44.372Z,29.73
2019-04-29T13:41:14.116Z,23.17
2019-04-29T13:43:39.936Z,25.93
2019-04-29T13:46:31.985Z,28.97
2019-04-29T13:49:18.637Z,26.63
2019-04-29T13:51:45.354Z,28.90
2019-04-29T13:54:11.979Z,28.47
2019-04-29T13:56:54.814Z,25.80
2019-04-29T13:59:10.703Z,26.90
2019-04-29T14:02:01.427Z,25.37
2019-04-29T14:04:28.599Z,22.30
2019-04-29T14:06:57.711Z,19.90
2019-04-29T14:09:24.433Z,29.30
2019-04-29T14:12:01.336Z,23.10
2019-04-29T14:14:22.776Z,25.83
2019-04-29T14:16:48.744Z,22.13
2019-04-29T14:19:20.607Z,24.07
2019-04-29T14:21:45.668Z,33.43
2019-04-29T14:24:13.913Z,22.80
2019-04-29T14:26:42.073Z,27.67
2019-04-29T14:29:09.775Z,31.07
2019-04-29T14:31:36.451Z,27.80
2019-04-29T14:34:20.236Z,29.00
2019-04-29T14:36:45.643Z,25.97
2019-04-29T14:39:13.105Z,28.77
2019-04-29T14:41:45.844Z,23.23
2019-04-29T14:44:41.496Z,26.07
2019-04-29T14:47:16.419Z,20.57
2019-04-29T14:49:46.512Z,21.40
2019-04-29T14:52:14.891Z,21.30
2019-04-29T14:54:43.216Z,18.90
2019-04-29T14:57:13.204Z,22.03
2019-04-29T14:59:40.460Z,22.97
2019-04-29T15:02:16.974Z,19.40
2019-04-29T15:04:45.326Z,18.30
2019-04-29T15:07:12.158Z,23.10
2019-04-29T15:09:55.969Z,17.80
2019-04-29T15:12:52.377Z,15.80
2019-04-29T15:15:24.848Z,18.10
2019-04-29T15:18:16.202Z,14.60
2019-04-29T15:20:49.441Z,18.20
2019-04-29T15:23:27.962Z,16.20
2019-04-29T15:25:44.920Z,14.67
2019-04-29T15:28:11.586Z,22.90
2019-04-29T15:30:38.706Z,14.47
2019-04-29T15:33:05.457Z,21.23
2019-04-29T15:35:32.813Z,15.20
2019-04-29T15:37:59.707Z,14.70
2019-04-29T15:40:28.560Z,16.90
2019-04-29T15:42:55.402Z,14.17
2019-04-29T15:45:22.487Z,17.77
2019-04-29T15:47:49.467Z,16.40
2019-04-29T15:50:19.435Z,18.77
2019-04-29T15:52:46.352Z,20.20
2019-04-29T15:55:13.647Z,19.70
2019-04-29T15:57:40.645Z,20.77
2019-04-29T16:00:21.666Z,17.57
2019-04-29T16:02:41.523Z,16.83
2019-04-29T16:05:18.687Z,21.63
2019-04-29T16:07:55.780Z,19.53
2019-04-29T16:10:41.027Z,16.83
2019-04-29T16:13:09.269Z,17.03
2019-04-29T16:15:37.056Z,19.03
2019-04-29T16:18:05.460Z,13.00
2019-04-29T16:20:32.411Z,16.80
2019-04-29T16:23:02.000Z,20.63
2019-04-29T16:25:28.956Z,18.23
2019-04-29T16:27:56.137Z,14.13
2019-04-29T16:30:25.970Z,16.73
2019-04-29T16:32:53.946Z,18.00
2019-04-29T16:35:23.669Z,21.70
2019-04-29T16:37:49.413Z,21.07
2019-04-29T16:40:17.670Z,14.70
2019-04-29T16:43:04.990Z,14.53
2019-04-29T16:45:51.558Z,17.70
2019-04-29T16:48:15.184Z,13.63
2019-04-29T16:50:41.982Z,15.10
2019-04-29T16:53:09.210Z,18.90
2019-04-29T16:55:42.896Z,17.03
2019-04-29T16:58:07.828Z,12.40
2019-04-29T17:00:35.348Z,15.33
2019-04-29T17:03:02.594Z,13.60
2019-04-29T17:05:30.073Z,11.30
2019-04-29T17:07:56.903Z,11.97
2019-04-29T17:10:44.488Z,12.60
2019-04-29T17:13:15.027Z,9.90
2019-04-29T17:15:44.616Z,12.60
2019-04-29T17:18:09.368Z,27.80
2019-04-29T17:20:36.788Z,21.23
2019-04-29T17:23:04.329Z,10.40
2019-04-29T17:25:36.709Z,17.40
2019-04-29T17:28:25.479Z,10.30
2019-04-29T17:31:20.646Z,16.10
2019-04-29T17:33:56.738Z,14.53
2019-04-29T17:36:25.821Z,15.40
2019-04-29T17:38:53.615Z,11.30
2019-04-29T17:41:20.768Z,12.13
2019-04-29T17:44:06.591Z,10.30
2019-04-29T17:47:01.873Z,14.30
2019-04-29T17:50:01.936Z,14.07
2019-04-29T17:52:30.267Z,12.20
2019-04-29T17:55:06.207Z,10.83
2019-04-29T17:57:41.965Z,10.77
2019-04-29T18:00:27.982Z,12.17
2019-04-29T18:03:10.968Z,9.40
2019-04-29T18:05:54.938Z,12.77
2019-04-29T18:08:23.295Z,13.20
2019-04-29T18:10:55.611Z,12.37
2019-04-29T18:13:26.494Z,11.10
2019-04-29T18:16:01.510Z,12.73
2019-04-29T18:18:30.575Z,14.23
2019-04-29T18:21:30.374Z,12.37
2019-04-29T18:24:21.633Z,15.13
2019-04-29T18:26:56.066Z,15.13
2019-04-29T18:29:23.350Z,15.93
2019-04-29T18:31:50.198Z,10.60
2019-04-29T18:34:17.168Z,14.30
2019-04-29T18:36:45.678Z,12.33
2019-04-29T18:39:16.022Z,12.07
2019-04-29T18:41:44.769Z,7.27
2019-04-29T18:44:18.939Z,9.60
2019-04-29T18:46:45.909Z,9.30
2019-04-29T18:49:08.905Z,13.00
2019-04-29T18:51:35.655Z,12.13
2019-04-29T18:54:35.618Z,15.47
2019-04-29T18:57:03.101Z,11.90
2019-04-29T18:59:33.320Z,14.17
2019-04-29T19:02:00.923Z,11.77
2019-04-29T19:04:35.433Z,12.63
2019-04-29T19:07:02.631Z,17.67
2019-04-29T19:09:35.901Z,8.97
2019-04-29T19:12:01.912Z,12.10
2019-04-29T19:14:28.770Z,19.90
2019-04-29T19:16:59.954Z,13.13
2019-04-29T19:19:25.350Z,13.83
2019-04-29T19:21:52.329Z,10.80
2019-04-29T19:24:19.054Z,18.10
2019-04-29T19:27:00.516Z,13.00
2019-04-29T19:29:25.947Z,11.93
2019-04-29T19:31:54.919Z,11.67
2019-04-29T19:34:21.623Z,9.17
2019-04-29T19:36:50.678Z,9.73
2019-04-29T19:39:21.677Z,12.57
2019-04-29T19:41:50.498Z,11.73
2019-04-29T19:44:15.515Z,14.30
2019-04-29T19:46:42.512Z,8.80
2019-04-29T19:49:10.140Z,7.80
2019-04-29T19:51:39.388Z,12.43
2019-04-29T19:54:05.818Z,11.17
2019-04-29T19:56:32.589Z,13.60
2019-04-29T19:59:10.541Z,15.40
2019-04-29T20:01:31.813Z,14.03
2019-04-29T20:04:17.675Z,10.90
2019-04-29T20:06:41.215Z,18.80
2019-04-29T20:09:17.292Z,18.60
2019-04-29T20:11:39.409Z,10.70
2019-04-29T20:14:17.597Z,17.33
2019-04-29T20:16:56.173Z,15.97
2019-04-29T20:19:30.745Z,15.13
2019-04-29T20:22:00.476Z,14.57
2019-04-29T20:24:26.473Z,10.00
2019-04-29T20:26:53.439Z,9.53
2019-04-29T20:29:20.846Z,9.13
2019-04-29T20:31:51.500Z,15.03
2019-04-29T20:34:23.771Z,9.83
2019-04-29T20:36:45.719Z,10.30
2019-04-29T20:39:16.960Z,21.23
2019-04-29T20:41:44.718Z,12.10
2019-04-29T20:44:11.170Z,13.03
2019-04-29T20:46:45.463Z,11.83
2019-04-29T20:49:07.311Z,111.00
2019-04-29T20:51:48.817Z,12.50
2019-04-29T20:54:13.405Z,18.10
2019-04-29T20:59:02.058Z,21.13
2019-04-29T21:01:36.422Z,10.10
2019-04-29T21:04:02.691Z,12.90
2019-04-29T21:06:32.706Z,9.70
2019-04-29T21:08:58.506Z,10.00
2019-04-29T21:11:33.092Z,11.53
2019-04-29T21:14:11.123Z,12.30
2019-04-29T21:16:41.420Z,10.00
2019-04-29T21:19:08.937Z,10.60
2019-04-29T21:21:36.828Z,15.50
2019-04-29T21:24:13.610Z,14.40
2019-04-29T21:26:37.929Z,11.67
2019-04-29T21:29:05.706Z,25.20
2019-04-29T21:31:32.807Z,14.20
2019-04-29T21:33:59.757Z,7.80
2019-04-29T21:36:50.655Z,10.43
2019-04-29T21:39:37.903Z,7.83
2019-04-29T21:42:28.084Z,9.90
2019-04-29T21:44:52.309Z,12.03
2019-04-29T21:47:19.596Z,8.57
2019-04-29T21:49:49.879Z,9.43
2019-04-29T21:52:15.409Z,11.20
2019-04-29T21:54:44.618Z,10.77
2019-04-29T21:57:11.057Z,12.60
2019-04-29T21:59:41.371Z,9.63
2019-04-29T22:02:11.523Z,9.33
2019-04-29T22:04:37.437Z,6.63
2019-04-29T22:07:07.973Z,9.97
2019-04-29T22:09:36.380Z,10.37
2019-04-29T22:12:05.469Z,10.20
2019-04-29T22:14:32.316Z,15.13
2019-04-29T22:16:59.113Z,8.40
2019-04-29T22:19:28.208Z,8.10
2019-04-29T22:21:59.779Z,14.10
2019-04-29T22:24:26.150Z,12.93
2019-04-29T22:26:58.210Z,11.50
2019-04-29T22:29:23.612Z,10.50
2019-04-29T22:31:50.396Z,12.40
2019-04-29T22:34:19.255Z,13.63
2019-04-29T22:36:48.162Z,11.40
2019-04-29T22:39:16.039Z,13.30
2019-04-29T22:41:58.266Z,8.30
2019-04-29T22:44:26.518Z,13.90
2019-04-29T22:46:53.259Z,9.27
2019-04-29T22:49:27.138Z,9.93
2019-04-29T22:51:49.725Z,11.47
2019-04-29T22:54:17.795Z,14.20
2019-04-29T22:56:52.098Z,10.90
2019-04-29T22:59:19.056Z,9.87
2019-04-29T23:01:49.155Z,10.90
2019-04-29T23:04:17.894Z,12.17
2019-04-29T23:06:48.016Z,11.90
2019-04-29T23:09:13.647Z,11.67
2019-04-29T23:11:41.351Z,15.03
2019-04-29T23:14:10.295Z,11.83
2019-04-29T23:16:37.298Z,12.00
2019-04-29T23:19:05.154Z,10.67
2019-04-29T23:21:55.981Z,11.50
2019-04-29T23:24:34.652Z,12.03
2019-04-29T23:27:06.090Z,9.07
2019-04-29T23:29:37.070Z,11.63
2019-04-29T23:32:04.743Z,9.57
2019-04-29T23:34:32.003Z,10.10
2019-04-29T23:37:02.323Z,12.97
2019-04-29T23:39:30.356Z,11.97
2019-04-29T23:41:57.027Z,10.07
2019-04-29T23:44:24.230Z,11.80
2019-04-29T23:46:50.933Z,11.47
2019-04-29T23:49:18.151Z,15.23
2019-04-29T23:51:46.477Z,8.30
2019-04-29T23:54:15.153Z,10.20
2019-04-29T23:57:01.658Z,9.80
2019-04-29T23:59:31.299Z,11.97
